Time;durP1;ratioP1;P1;durP2;ratioP2;P2;SDS_P1;SDS_P2;PMS_P1;PMS_P2;Temp;Humidity;BMP_temperature;BMP_pressure;BME280_temperature;BME280_humidity;BME280_pressure;Samples;Min_cycle;Max_cycle;Signal;HPM_P1;HPM_P2
2022/05/04 00:00:09;;;;;;;;;16.50;15.25;;;;;16.42;36.61;101351.38;5039269;28;45471;-62
2022/05/04 00:02:35;;;;;;;;;19.75;15.25;;;;;16.40;36.60;101348.78;5038971;28;45381;-61
2022/05/04 00:05:01;;;;;;;;;18.75;18.00;;;;;16.34;36.66;101345.41;5038897;28;45392;-62
2022/05/04 00:07:26;;;;;;;;;16.00;13.75;;;;;16.34;36.60;101351.63;5039566;28;45333;-62
2022/05/04 00:09:52;;;;;;;;;17.00;14.00;;;;;16.29;36.73;101350.00;5047292;28;45623;-61
2022/05/04 00:12:17;;;;;;;;;13.75;12.50;;;;;16.28;36.63;101348.28;5039007;28;45262;-61
2022/05/04 00:14:42;;;;;;;;;17.00;15.25;;;;;16.25;36.73;101350.09;5039289;28;45380;-61
2022/05/04 00:17:08;;;;;;;;;17.00;14.25;;;;;16.16;36.61;101336.22;5038831;28;45530;-61
2022/05/04 00:19:33;;;;;;;;;22.50;14.25;;;;;16.22;36.90;101349.31;5028775;28;46360;-62
2022/05/04 00:21:58;;;;;;;;;16.75;14.75;;;;;16.18;36.90;101342.34;5039186;28;45261;-62
2022/05/04 00:24:24;;;;;;;;;15.00;15.00;;;;;16.16;36.80;101338.88;5042426;28;45272;-61
2022/05/04 00:26:49;;;;;;;;;15.25;14.00;;;;;16.15;37.03;101343.31;5042178;28;45617;-62
2022/05/04 00:29:14;;;;;;;;;20.25;16.00;;;;;16.11;37.00;101332.81;5042285;28;45279;-61
2022/05/04 00:31:40;;;;;;;;;20.00;17.75;;;;;16.08;36.90;101337.28;5042084;28;45227;-61
2022/05/04 00:34:05;;;;;;;;;16.75;15.50;;;;;16.04;37.23;101338.28;5042429;28;45343;-61
2022/05/04 00:36:34;;;;;;;;;21.25;18.50;;;;;16.01;37.36;101332.22;5041901;28;45358;-62
2022/05/04 00:39:00;;;;;;;;;14.75;12.50;;;;;16.03;37.40;101346.31;5041912;28;45317;-62
2022/05/04 00:41:25;;;;;;;;;20.50;17.25;;;;;16.01;37.26;101348.13;5041836;28;45352;-62
2022/05/04 00:43:52;;;;;;;;;18.00;15.75;;;;;15.98;37.68;101341.13;5032183;28;45384;-61
2022/05/04 00:46:18;;;;;;;;;22.00;19.25;;;;;15.97;37.46;101342.03;5059840;28;45312;-62
2022/05/04 00:48:44;;;;;;;;;21.75;18.00;;;;;15.96;37.40;101336.75;5061826;28;46314;-61
2022/05/04 00:51:09;;;;;;;;;20.75;16.50;;;;;15.95;37.28;101337.66;5023534;28;45262;-61
2022/05/04 00:53:35;;;;;;;;;18.50;16.25;;;;;15.92;37.85;101333.31;5042012;28;45622;-62
2022/05/04 00:56:01;;;;;;;;;16.00;15.00;;;;;15.86;37.53;101329.06;5041620;28;45178;-61
2022/05/04 01:01:12;;;;;;;;;21.50;18.25;;;;;15.82;37.46;101324.75;5029172;28;45293;-61
2022/05/04 01:03:38;;;;;;;;;16.50;16.50;;;;;15.81;37.65;101333.59;5041665;28;45472;-61
2022/05/04 01:06:03;;;;;;;;;21.00;16.50;;;;;15.80;38.06;101329.22;5041555;28;45298;-61
2022/05/04 01:08:29;;;;;;;;;23.75;21.25;;;;;15.78;37.91;101323.06;5041515;28;45312;-61
2022/05/04 01:10:54;;;;;;;;;26.00;22.25;;;;;15.76;37.71;101332.84;5040232;28;45840;-61
2022/05/04 01:13:20;;;;;;;;;23.25;20.50;;;;;15.72;38.14;101328.53;5042042;28;45355;-61
2022/05/04 01:15:48;;;;;;;;;17.25;16.75;;;;;15.70;38.13;101325.94;5041643;28;45326;-62
2022/05/04 01:18:13;;;;;;;;;20.75;17.50;;;;;15.68;38.17;101322.44;5041318;28;45262;-61
2022/05/04 01:20:38;;;;;;;;;16.25;15.50;;;;;15.68;37.82;101318.94;5041162;28;45301;-63
2022/05/04 01:23:04;;;;;;;;;21.25;18.25;;;;;15.65;38.46;101324.31;5041535;28;45390;-61
2022/05/04 01:25:29;;;;;;;;;19.00;16.25;;;;;15.65;37.88;101332.28;5041211;28;45229;-62
2022/05/04 01:27:55;;;;;;;;;22.25;19.25;;;;;15.63;38.11;101328.78;5041394;28;46519;-62
2022/05/04 01:30:21;;;;;;;;;19.25;18.75;;;;;15.62;38.02;101329.69;5041236;28;45270;-62
2022/05/04 01:32:47;;;;;;;;;20.25;15.50;;;;;15.60;38.09;101332.38;5041485;28;45444;-61
2022/05/04 01:35:12;;;;;;;;;19.75;16.50;;;;;15.57;37.94;101335.97;5040250;28;45230;-62
2022/05/04 01:37:37;;;;;;;;;16.00;15.25;;;;;15.52;38.72;101324.63;5041195;28;45858;-62
2022/05/04 01:40:05;;;;;;;;;20.75;13.50;;;;;15.54;38.26;101333.38;5041047;28;45387;-61
2022/05/04 01:42:30;;;;;;;;;18.75;18.25;;;;;15.52;38.35;101334.34;5041179;28;45253;-62
2022/05/04 01:44:56;;;;;;;;;18.50;16.50;;;;;15.54;38.12;101335.19;5039691;28;45366;-62
2022/05/04 01:47:21;;;;;;;;;14.75;14.25;;;;;15.53;38.43;101344.03;5040891;28;45285;-62
2022/05/04 01:49:46;;;;;;;;;22.50;20.25;;;;;15.51;38.64;101336.13;5041370;28;45410;-62
2022/05/04 01:52:12;;;;;;;;;18.25;14.00;;;;;15.49;38.37;101335.28;5061312;28;45836;-62
2022/05/04 01:54:37;;;;;;;;;23.50;19.25;;;;;15.48;38.62;101335.34;5060962;28;45309;-62
2022/05/04 01:57:03;;;;;;;;;24.75;20.00;;;;;15.47;38.77;101337.13;5042962;28;48566;-62
2022/05/04 01:59:28;;;;;;;;;22.00;19.75;;;;;15.45;38.70;101341.59;5040941;28;45119;-62
2022/05/04 02:01:54;;;;;;;;;22.50;19.00;;;;;15.44;38.45;101340.72;5041019;28;45455;-61
2022/05/04 02:04:20;;;;;;;;;15.75;14.50;;;;;15.42;39.01;101341.63;5040669;28;45321;-62
2022/05/04 02:06:45;;;;;;;;;17.25;12.25;;;;;15.39;38.67;101333.78;5040439;28;46044;-62
2022/05/04 02:09:11;;;;;;;;;21.00;21.00;;;;;15.38;38.98;101337.34;5054425;28;45261;-61
2022/05/04 02:11:37;;;;;;;;;19.00;17.25;;;;;15.38;38.92;101345.28;5040899;28;45310;-61
2022/05/04 02:14:03;;;;;;;;;19.50;17.50;;;;;15.35;38.54;101340.94;5022696;28;45513;-61
2022/05/04 02:16:29;;;;;;;;;20.50;19.75;;;;;15.34;39.08;101343.63;5040519;28;45432;-62
2022/05/04 02:18:56;;;;;;;;;20.50;16.75;;;;;15.32;38.86;101342.78;5041710;28;45986;-61
2022/05/04 02:21:21;;;;;;;;;19.75;19.75;;;;;15.25;39.19;101340.28;5047614;28;45493;-61
2022/05/04 02:23:47;;;;;;;;;22.50;19.50;;;;;15.28;38.93;101344.63;5040195;28;45321;-61
2022/05/04 02:26:12;;;;;;;;;23.75;21.00;;;;;15.26;39.28;101347.31;5040180;28;46052;-61
2022/05/04 02:28:37;;;;;;;;;22.25;19.25;;;;;15.26;38.78;101341.16;5040333;28;45322;-61
2022/05/04 02:31:03;;;;;;;;;19.75;16.50;;;;;15.25;39.41;101344.72;5040456;28;45242;-61
2022/05/04 02:33:28;;;;;;;;;21.25;18.25;;;;;15.21;39.40;101333.31;5040262;28;45377;-61
2022/05/04 02:38:37;;;;;;;;;25.00;21.50;;;;;15.19;39.49;101332.47;5040505;28;45373;-62
2022/05/04 02:41:03;;;;;;;;;20.00;20.00;;;;;15.16;39.16;101327.28;5040107;28;45422;-61
2022/05/04 02:43:29;;;;;;;;;19.75;16.75;;;;;15.15;39.64;101322.88;5028302;28;45388;-61
2022/05/04 02:45:56;;;;;;;;;22.50;19.50;;;;;15.13;39.03;101318.53;5053562;28;45760;-61
2022/05/04 02:48:21;;;;;;;;;24.75;22.75;;;;;15.11;39.53;101323.88;5060398;28;45211;-61
2022/05/04 02:50:46;;;;;;;;;17.00;17.00;;;;;15.09;39.12;101315.09;5059779;28;45511;-61
2022/05/04 02:53:12;;;;;;;;;18.50;17.00;;;;;15.04;39.37;101302.00;5060298;28;45542;-62
2022/05/04 02:55:38;;;;;;;;;23.00;20.75;;;;;15.05;39.62;101318.72;5041804;28;45490;-61
2022/05/04 02:58:03;;;;;;;;;23.75;20.00;;;;;15.03;39.57;101315.22;5034145;28;45523;-61
2022/05/04 03:00:28;;;;;;;;;21.75;19.50;;;;;15.01;39.43;101312.63;5039989;28;45794;-61
2022/05/04 03:02:54;;;;;;;;;24.00;21.50;;;;;14.98;39.68;101315.38;5039926;28;45463;-61
2022/05/04 03:05:20;;;;;;;;;27.00;23.50;;;;;14.98;39.62;101314.47;5032237;28;46749;-61
2022/05/04 03:07:46;;;;;;;;;28.00;21.25;;;;;14.97;39.68;101313.63;5039947;28;45388;-62
2022/05/04 03:10:13;;;;;;;;;21.50;19.75;;;;;14.94;39.75;101309.28;5021752;28;45433;-61
2022/05/04 03:12:39;;;;;;;;;18.75;15.25;;;;;14.91;39.75;101306.69;5039793;28;45233;-61
2022/05/04 03:15:05;;;;;;;;;22.00;21.25;;;;;14.91;39.60;101314.63;5039543;28;46198;-61
2022/05/04 03:17:31;;;;;;;;;21.25;19.75;;;;;14.89;39.77;101316.44;5039474;28;45229;-61
2022/05/04 03:19:58;;;;;;;;;26.25;21.75;;;;;14.89;39.40;101316.44;5039224;28;45400;-62
2022/05/04 03:22:25;;;;;;;;;20.75;17.50;;;;;14.88;40.11;101311.16;5039547;28;45533;-62
2022/05/04 03:24:50;;;;;;;;;18.75;18.75;;;;;14.85;39.62;101309.47;5038956;28;47104;-61
2022/05/04 03:27:15;;;;;;;;;19.50;19.50;;;;;14.84;39.78;101301.56;5039361;28;45337;-62
2022/05/04 03:29:41;;;;;;;;;22.25;22.25;;;;;14.83;39.91;101311.28;5039680;28;45373;-62
2022/05/04 03:32:07;;;;;;;;;19.75;19.50;;;;;14.82;39.89;101304.25;5039459;28;45502;-62
2022/05/04 03:34:32;;;;;;;;;20.00;19.75;;;;;14.81;39.86;101307.78;5039241;28;46223;-62
2022/05/04 03:36:58;;;;;;;;;23.75;22.25;;;;;14.78;40.33;101299.94;5021587;28;45882;-62
2022/05/04 03:39:25;;;;;;;;;26.75;23.50;;;;;14.79;40.06;101304.31;5039392;28;45226;-62
2022/05/04 03:41:50;;;;;;;;;18.50;16.00;;;;;14.77;40.37;101308.78;5039399;28;45289;-62
2022/05/04 03:44:16;;;;;;;;;28.75;25.50;;;;;14.75;40.19;101305.28;5040035;28;45423;-62
2022/05/04 03:46:49;;;;;;;;;21.00;19.00;;;;;14.73;39.97;101301.78;5059445;28;45125;-62
2022/05/04 03:49:17;;;;;;;;;19.75;17.50;;;;;14.71;40.31;101301.84;5059593;28;45304;-62
2022/05/04 03:51:43;;;;;;;;;25.00;25.00;;;;;14.66;40.07;101295.78;5059040;28;46361;-61
2022/05/04 03:54:09;;;;;;;;;26.50;20.50;;;;;14.66;40.17;101293.13;5059018;28;45459;-62
2022/05/04 03:56:35;;;;;;;;;24.50;21.25;;;;;14.65;39.87;101306.41;5059321;28;45392;-62
2022/05/04 03:59:01;;;;;;;;;21.50;18.75;;;;;14.61;39.89;101302.91;5046802;28;45333;-62
2022/05/04 04:01:27;;;;;;;;;21.50;20.75;;;;;14.58;40.59;101303.00;5024672;28;45544;-62
2022/05/04 04:03:52;;;;;;;;;23.25;20.00;;;;;14.57;40.21;101303.91;5042409;28;45271;-62
2022/05/04 04:06:17;;;;;;;;;19.25;16.75;;;;;14.54;40.07;101307.47;5029943;28;45973;-62
2022/05/04 04:08:43;;;;;;;;;22.75;16.00;;;;;14.51;40.43;101310.19;5042690;28;45322;-62
2022/05/04 04:11:10;;;;;;;;;20.50;17.75;;;;;14.48;40.16;101299.69;5042442;28;45533;-61
2022/05/04 04:13:37;;;;;;;;;18.25;16.75;;;;;14.45;40.27;101305.91;5042346;28;45291;-62
2022/05/04 04:16:02;;;;;;;;;24.50;24.00;;;;;14.40;40.26;101302.50;5042480;28;45275;-62
2022/05/04 04:18:28;;;;;;;;;20.50;19.50;;;;;14.37;40.52;101310.47;5024722;28;45241;-62
2022/05/04 04:23:39;;;;;;;;;20.75;19.25;;;;;14.35;40.73;101319.34;5042342;28;45797;-61
2022/05/04 04:26:06;;;;;;;;;21.00;19.25;;;;;14.31;40.77;101318.53;5041997;28;45364;-62
2022/05/04 04:28:34;;;;;;;;;21.00;19.50;;;;;14.28;40.49;101311.53;5042246;28;45438;-61
2022/05/04 04:31:00;;;;;;;;;23.00;18.75;;;;;14.28;40.73;101316.81;5042042;28;45311;-62
2022/05/04 04:33:26;;;;;;;;;16.25;15.75;;;;;14.27;40.53;101317.72;5041922;28;45387;-61
2022/05/04 04:36:00;;;;;;;;;19.25;17.25;;;;;14.20;40.54;101305.56;5041805;28;45362;-62
2022/05/04 04:38:26;;;;;;;;;24.50;21.50;;;;;14.21;40.79;101323.13;5024090;28;45379;-62
2022/05/04 04:40:52;;;;;;;;;22.75;17.25;;;;;14.19;40.58;101314.38;5041920;28;45199;-61
2022/05/04 04:43:17;;;;;;;;;25.00;20.25;;;;;14.18;40.59;101322.34;5039447;28;46031;-61
2022/05/04 04:45:44;;;;;;;;;27.00;25.25;;;;;14.13;40.77;101325.06;5055211;28;45384;-61
2022/05/04 04:48:09;;;;;;;;;19.25;19.00;;;;;14.11;40.82;101318.94;5062320;28;45320;-61
2022/05/04 04:50:35;;;;;;;;;20.75;17.00;;;;;14.09;40.92;101320.75;5061706;28;45308;-61
2022/05/04 04:53:00;;;;;;;;;16.00;15.75;;;;;14.08;40.69;101329.56;5061871;28;46144;-61
2022/05/04 04:55:26;;;;;;;;;23.75;19.50;;;;;14.04;40.94;101333.19;5061873;28;45348;-61
2022/05/04 04:57:51;;;;;;;;;20.00;19.00;;;;;14.03;40.89;101336.72;5055417;28;45431;-62
2022/05/04 05:00:17;;;;;;;;;22.50;21.25;;;;;14.00;41.33;101335.00;5023815;28;45339;-62
2022/05/04 05:02:42;;;;;;;;;28.75;21.50;;;;;13.98;40.98;101334.16;5041659;28;45395;-61
2022/05/04 05:05:08;;;;;;;;;23.75;20.75;;;;;13.91;40.91;101324.59;5041430;28;45622;-61
2022/05/04 05:07:33;;;;;;;;;21.25;20.25;;;;;13.96;40.96;101334.19;5041721;28;45233;-61
2022/05/04 05:09:59;;;;;;;;;25.75;24.25;;;;;13.96;41.15;101342.13;5040501;28;45258;-61
2022/05/04 05:12:24;;;;;;;;;24.50;18.75;;;;;13.94;41.15;101341.28;5041628;28;45297;-61
2022/05/04 05:17:35;;;;;;;;;25.50;21.50;;;;;13.93;41.07;101343.94;5049681;28;45230;-61
2022/05/04 05:20:02;;;;;;;;;23.25;23.25;;;;;13.91;40.95;101346.63;5061261;28;45332;-61
2022/05/04 05:22:27;;;;;;;;;25.00;20.00;;;;;13.91;41.01;101343.09;5043299;28;47011;-61
2022/05/04 05:24:53;;;;;;;;;20.75;20.25;;;;;13.91;41.39;101346.63;5061242;28;45258;-62
2022/05/04 05:27:18;;;;;;;;;25.00;22.25;;;;;13.91;41.20;101349.28;5061953;28;45436;-61
2022/05/04 05:29:43;;;;;;;;;21.75;18.75;;;;;13.91;41.34;101351.03;5061277;28;45334;-61
2022/05/04 05:32:08;;;;;;;;;23.75;21.75;;;;;13.91;41.42;101343.97;5061332;28;46137;-61
2022/05/04 05:34:34;;;;;;;;;25.00;19.75;;;;;13.90;41.47;101347.53;5061008;28;45322;-61
2022/05/04 05:37:00;;;;;;;;;28.25;24.25;;;;;13.87;41.12;101346.69;5061498;28;45453;-61
2022/05/04 05:39:26;;;;;;;;;25.50;20.50;;;;;13.86;41.10;101353.78;5061130;28;45544;-62
2022/05/04 05:41:52;;;;;;;;;22.75;21.25;;;;;13.83;41.32;101361.72;5061150;28;45360;-61
2022/05/04 05:44:17;;;;;;;;;27.25;24.50;;;;;13.84;41.11;101367.91;5059709;28;46284;-61
2022/05/04 05:46:43;;;;;;;;;26.75;22.25;;;;;13.81;41.59;101355.59;5061494;28;45495;-61
2022/05/04 05:49:08;;;;;;;;;25.75;21.50;;;;;13.83;41.45;101359.09;5061293;28;45521;-61
2022/05/04 05:51:33;;;;;;;;;23.00;19.50;;;;;13.85;41.61;101356.41;5060679;28;46405;-61
2022/05/04 05:53:58;;;;;;;;;18.25;14.75;;;;;13.84;41.78;101349.41;5060907;28;45293;-61
2022/05/04 05:56:24;;;;;;;;;19.00;18.75;;;;;13.87;41.25;101350.19;5044151;28;45210;-61
2022/05/04 05:58:49;;;;;;;;;21.00;19.25;;;;;13.86;41.54;101345.84;5047074;28;45523;-62
2022/05/04 06:01:14;;;;;;;;;21.50;21.00;;;;;13.91;41.72;101356.31;5040885;28;45250;-62
2022/05/04 06:03:40;;;;;;;;;27.00;25.75;;;;;13.92;41.57;101360.69;5040843;28;45214;-62
2022/05/04 06:06:05;;;;;;;;;22.75;21.75;;;;;13.94;41.41;101366.84;5040805;28;45210;-62
2022/05/04 06:08:30;;;;;;;;;26.50;23.25;;;;;13.96;41.74;101378.22;5040805;28;45156;-62
2022/05/04 06:10:56;;;;;;;;;22.75;19.50;;;;;13.94;41.82;101367.69;5040464;28;46321;-62
2022/05/04 06:13:21;;;;;;;;;27.25;20.50;;;;;13.97;41.31;101369.41;5040840;28;45412;-62
2022/05/04 06:15:47;;;;;;;;;24.25;18.75;;;;;13.97;41.65;101367.66;5040773;28;45480;-61
2022/05/04 06:18:12;;;;;;;;;22.00;20.00;;;;;14.01;41.89;101367.59;5022742;28;45245;-61
2022/05/04 06:20:38;;;;;;;;;23.00;19.50;;;;;14.03;41.71;101376.38;5039904;28;45790;-62
2022/05/04 06:23:04;;;;;;;;;27.00;24.00;;;;;14.05;41.98;101379.81;5040536;28;45378;-61
2022/05/04 06:25:30;;;;;;;;;20.75;19.00;;;;;14.07;41.53;101393.91;5040304;28;45305;-61
2022/05/04 06:27:55;;;;;;;;;23.75;19.75;;;;;14.07;41.51;101392.13;5040525;28;45487;-61
2022/05/04 06:35:48;;;;;;;;;24.25;21.25;;;;;14.12;42.25;101392.03;5040238;28;45408;-61
2022/05/04 06:38:14;;;;;;;;;24.50;19.75;;;;;14.11;41.93;101385.00;5022153;28;45357;-61
2022/05/04 06:40:39;;;;;;;;;20.50;18.50;;;;;14.13;41.54;101389.34;5040278;28;46112;-61
2022/05/04 06:43:05;;;;;;;;;21.25;21.00;;;;;14.16;41.55;101391.06;5040132;28;45380;-61
2022/05/04 06:45:30;;;;;;;;;23.25;20.25;;;;;14.17;41.66;101384.03;5051929;28;45305;-61
2022/05/04 06:47:56;;;;;;;;;25.00;21.75;;;;;14.19;41.72;101392.78;5060042;28;45599;-61
2022/05/04 06:50:21;;;;;;;;;22.00;19.75;;;;;14.17;41.51;101390.19;5041755;28;48138;-61
2022/05/04 06:52:47;;;;;;;;;15.50;15.00;;;;;14.20;41.65;101390.13;5060143;28;45494;-61
2022/05/04 06:55:12;;;;;;;;;22.00;20.75;;;;;14.21;41.84;101393.63;5060311;28;45382;-61
2022/05/04 06:57:37;;;;;;;;;19.25;16.25;;;;;14.25;41.62;101400.59;5037764;28;45448;-60
2022/05/04 07:00:04;;;;;;;;;26.00;23.00;;;;;14.26;41.70;101390.03;5040046;28;46291;-60
2022/05/04 07:02:33;;;;;;;;;20.75;18.75;;;;;14.28;41.60;101390.00;5036145;28;45250;-61
2022/05/04 07:04:58;;;;;;;;;23.50;19.75;;;;;14.34;41.92;101396.91;5039782;28;45214;-61
2022/05/04 07:07:23;;;;;;;;;24.50;22.25;;;;;14.35;41.63;101402.19;5039785;28;45337;-61
2022/05/04 07:09:49;;;;;;;;;26.50;23.00;;;;;14.37;42.04;101400.38;5039725;28;45385;-61
2022/05/04 07:12:14;;;;;;;;;26.75;21.75;;;;;14.40;41.91;101410.91;5039739;28;45427;-61
2022/05/04 07:14:39;;;;;;;;;26.75;22.50;;;;;14.42;41.41;101400.28;5038646;28;45385;-61
2022/05/04 07:17:05;;;;;;;;;22.25;22.00;;;;;14.43;41.60;101407.31;5039554;28;45253;-61
2022/05/04 07:19:30;;;;;;;;;24.50;21.00;;;;;14.45;41.86;101400.22;5039543;28;45680;-60
2022/05/04 07:21:55;;;;;;;;;25.00;22.50;;;;;14.49;42.06;101401.03;5036201;28;45334;-61
2022/05/04 07:24:21;;;;;;;;;20.00;19.00;;;;;14.53;41.95;101403.59;5029312;28;45435;-61
2022/05/04 07:26:46;;;;;;;;;22.00;20.75;;;;;14.51;41.58;101397.44;5021614;28;45320;-61
2022/05/04 07:29:11;;;;;;;;;27.50;24.75;;;;;14.60;41.96;101418.44;5038199;28;45450;-61
2022/05/04 07:31:38;;;;;;;;;25.50;23.25;;;;;14.59;41.89;101407.88;5039535;28;45502;-61
2022/05/04 07:34:03;;;;;;;;;28.75;24.75;;;;;14.69;41.97;101421.81;5043277;28;45328;-61
2022/05/04 07:36:29;;;;;;;;;19.25;18.25;;;;;14.70;41.67;101420.91;5042734;28;45495;-61
2022/05/04 07:38:54;;;;;;;;;21.00;20.25;;;;;14.74;41.98;101423.47;5043197;28;45166;-61
2022/05/04 07:44:03;;;;;;;;;26.50;24.50;;;;;14.79;41.44;101410.13;5043194;28;45280;-61
2022/05/04 07:46:29;;;;;;;;;28.50;26.75;;;;;14.83;42.09;101413.59;5062520;28;45618;-61
2022/05/04 07:48:55;;;;;;;;;28.50;23.75;;;;;14.88;41.81;101411.72;5044919;28;47042;-61
2022/05/04 07:51:21;;;;;;;;;34.75;27.00;;;;;14.89;42.06;101414.34;5062662;28;45360;-61
2022/05/04 07:53:46;;;;;;;;;26.75;24.50;;;;;14.94;41.68;101411.59;5063114;28;45297;-62
2022/05/04 07:56:11;;;;;;;;;30.50;25.75;;;;;14.99;41.73;101409.69;5061512;28;45225;-62
2022/05/04 07:58:37;;;;;;;;;20.50;20.00;;;;;15.05;41.75;101412.22;5049340;28;45265;-62
2022/05/04 08:06:30;;;;;;;;;24.00;20.25;;;;;15.15;41.60;101417.31;5042470;28;45252;-59
2022/05/04 08:08:55;;;;;;;;;26.00;25.00;;;;;15.21;42.01;101415.41;5042295;28;45593;-60
2022/05/04 08:11:20;;;;;;;;;27.50;24.75;;;;;15.24;41.69;101406.50;5042669;28;45238;-60
2022/05/04 08:13:46;;;;;;;;;31.75;25.50;;;;;15.21;42.18;101402.16;5042596;28;45245;-61
2022/05/04 08:16:13;;;;;;;;;31.75;26.00;;;;;15.36;41.71;101415.97;5042485;28;45147;-61
2022/05/04 08:18:40;;;;;;;;;25.25;21.75;;;;;15.41;41.90;101414.06;5042377;28;46970;-61
2022/05/04 08:21:08;;;;;;;;;24.50;24.25;;;;;15.50;41.63;101420.94;5042098;28;45384;-61
2022/05/04 08:23:34;;;;;;;;;32.25;28.25;;;;;15.56;42.20;101421.66;5042258;28;45179;-61
2022/05/04 08:26:01;;;;;;;;;23.50;20.00;;;;;15.65;41.90;101425.00;5040916;28;45168;-61
2022/05/04 08:28:26;;;;;;;;;30.25;27.25;;;;;15.74;41.98;101432.69;5038719;28;45318;-61
2022/05/04 08:30:51;;;;;;;;;36.25;29.00;;;;;15.82;41.74;101428.09;5033635;28;45273;-61
2022/05/04 08:33:18;;;;;;;;;25.50;21.00;;;;;15.82;42.06;101411.34;5042269;28;45222;-61
2022/05/04 08:35:44;;;;;;;;;28.25;26.75;;;;;15.98;42.04;101422.44;5042103;28;45702;-61
2022/05/04 08:38:10;;;;;;;;;34.50;30.50;;;;;16.06;41.74;101423.06;5038239;28;46875;-61
2022/05/04 08:40:36;;;;;;;;;30.50;26.00;;;;;16.11;41.74;101417.66;5041835;28;45325;-62
2022/05/04 08:43:07;;;;;;;;;30.50;29.00;;;;;16.19;41.77;101416.56;5041975;28;45452;-61
2022/05/04 08:45:37;;;;;;;;;32.00;26.00;;;;;16.27;42.07;101421.63;5053806;28;45240;-61
2022/05/04 08:48:04;;;;;;;;;23.50;23.25;;;;;16.36;41.70;101417.88;5043811;28;45426;-62
2022/05/04 08:50:30;;;;;;;;;26.00;25.00;;;;;16.42;41.95;101415.91;5061503;28;45317;-62
2022/05/04 08:52:56;;;;;;;;;29.75;25.50;;;;;16.50;41.91;101412.19;5061962;28;45388;-62
2022/05/04 08:55:23;;;;;;;;;34.25;33.25;;;;;16.55;41.80;101416.44;5062066;28;45193;-62
2022/05/04 08:57:49;;;;;;;;;27.75;25.75;;;;;16.61;41.78;101414.53;5055846;28;46484;-62
2022/05/04 09:00:16;;;;;;;;;27.00;25.75;;;;;16.66;41.73;101412.63;5042002;28;45467;-62
2022/05/04 09:02:42;;;;;;;;;36.00;30.50;;;;;16.74;41.46;101415.91;5041714;28;45489;-62
2022/05/04 09:05:16;;;;;;;;;38.25;31.50;;;;;16.81;41.78;101416.59;5041622;28;45308;-62
2022/05/04 09:07:42;;;;;;;;;34.00;32.25;;;;;16.87;41.61;101419.94;5048907;28;47094;-62
2022/05/04 09:10:14;;;;;;;;;27.50;26.25;;;;;16.97;41.52;101427.69;5043557;28;45407;-61
2022/05/04 09:12:44;;;;;;;;;27.50;25.25;;;;;17.07;41.52;101423.81;5061800;28;45411;-62
2022/05/04 09:15:37;;;;;;;;;31.75;28.25;;;;;17.20;41.58;101419.00;5061496;28;45521;-62
2022/05/04 09:18:08;;;;;;;;;35.25;27.00;;;;;17.32;41.59;101413.31;5059613;28;46195;-62
2022/05/04 09:20:57;;;;;;;;;35.50;27.25;;;;;17.43;41.30;101420.91;5061114;28;45312;-62
2022/05/04 09:23:30;;;;;;;;;31.75;26.25;;;;;17.59;41.32;101425.75;5061680;28;45340;-61
2022/05/04 09:25:58;;;;;;;;;31.75;25.50;;;;;17.74;41.38;101421.72;5061315;28;45287;-61
2022/05/04 09:28:26;;;;;;;;;29.25;27.75;;;;;17.87;41.33;101423.03;5061389;28;46323;-60
2022/05/04 09:30:56;;;;;;;;;29.75;26.25;;;;;17.98;41.38;101428.03;5061403;28;45259;-61
2022/05/04 09:33:27;;;;;;;;;31.50;26.50;;;;;18.12;41.10;101428.38;5061379;28;45351;-60
2022/05/04 09:35:54;;;;;;;;;23.50;23.25;;;;;18.21;41.18;101416.56;5061065;28;45467;-61
2022/05/04 09:46:42;;;;;;;;;25.00;22.50;;;;;18.59;40.69;101403.69;5053632;28;45329;-63
2022/05/04 09:49:21;;;;;;;;;22.50;19.25;;;;;18.69;40.60;101409.50;5040325;28;46811;-61
2022/05/04 09:51:50;;;;;;;;;23.50;23.50;;;;;18.76;40.63;101403.03;5029024;28;45496;-61
2022/05/04 09:54:23;;;;;;;;;24.75;20.75;;;;;18.82;40.55;101400.13;5040452;28;45355;-62
2022/05/04 09:56:54;;;;;;;;;23.50;23.50;;;;;18.92;40.54;101402.50;5048295;28;45302;-61
2022/05/04 09:59:22;;;;;;;;;23.50;23.25;;;;;19.02;40.42;101406.53;5041747;28;46129;-61
2022/05/04 10:01:50;;;;;;;;;20.50;19.75;;;;;19.08;40.50;101392.97;5040549;28;45345;-62
2022/05/04 10:04:16;;;;;;;;;26.00;20.50;;;;;19.23;40.41;101393.28;5040117;28;45457;-64
2022/05/04 10:06:44;;;;;;;;;29.00;27.00;;;;;19.39;40.24;101393.53;5040652;28;45329;-62
2022/05/04 10:09:10;;;;;;;;;21.00;20.00;;;;;19.51;40.53;101390.34;5040241;28;46216;-62
2022/05/04 10:11:37;;;;;;;;;26.75;24.50;;;;;19.65;40.05;101395.97;5040626;28;46186;-61
2022/05/04 10:14:10;;;;;;;;;18.25;16.75;;;;;19.79;40.47;101391.84;5040620;28;45344;-61
2022/05/04 10:17:01;;;;;;;;;23.50;21.50;;;;;19.93;40.09;101402.81;5040304;28;45548;-61
2022/05/04 10:19:33;;;;;;;;;19.50;18.00;;;;;20.07;39.92;101396.88;5040170;28;46160;-61
2022/05/04 10:22:00;;;;;;;;;19.25;16.00;;;;;20.18;40.07;101393.75;5040446;28;45344;-62
2022/05/04 10:24:30;;;;;;;;;18.50;15.50;;;;;20.29;39.52;101386.13;5040226;28;45327;-62
2022/05/04 10:27:14;;;;;;;;;12.00;11.00;;;;;20.44;39.68;101395.25;5040098;28;45336;-61
2022/05/04 10:33:00;;;;;;;;;17.25;14.25;;;;;20.69;39.00;101388.81;5040253;28;45405;-62
2022/05/04 10:35:33;;;;;;;;;23.00;16.50;;;;;20.81;38.87;101397.22;5029716;28;45228;-62
2022/05/04 10:37:59;;;;;;;;;14.50;12.25;;;;;20.92;39.27;101406.44;5040080;28;45354;-62
2022/05/04 10:40:31;;;;;;;;;13.00;9.50;;;;;21.04;39.02;101401.44;5039846;28;46093;-62
2022/05/04 10:43:07;;;;;;;;;14.75;12.25;;;;;21.13;38.77;101397.47;5039888;28;45415;-64
2022/05/04 10:45:37;;;;;;;;;16.50;14.00;;;;;21.25;38.94;101402.22;5051903;28;45555;-61
2022/05/04 10:48:18;;;;;;;;;18.00;15.75;;;;;21.38;38.91;101408.72;5041850;28;45482;-62
2022/05/04 10:50:55;;;;;;;;;17.75;14.25;;;;;21.49;38.53;101412.66;5059510;28;45467;-62
2022/05/04 10:53:24;;;;;;;;;17.00;14.25;;;;;21.62;38.52;101408.44;5060107;28;45391;-61
2022/05/04 10:56:03;;;;;;;;;20.50;15.25;;;;;21.82;38.43;101414.59;5059975;28;45339;-62
2022/05/04 10:58:37;;;;;;;;;18.25;14.75;;;;;22.11;38.79;101414.91;5051276;28;45444;-61
2022/05/04 11:01:17;;;;;;;;;13.50;12.25;;;;;22.49;38.63;101406.69;5059622;28;45423;-62
2022/05/04 11:04:03;;;;;;;;;20.25;16.00;;;;;22.86;38.31;101405.53;5041644;28;45522;-60
2022/05/04 11:06:40;;;;;;;;;15.50;11.50;;;;;23.21;38.18;101413.44;5058985;28;45497;-61
2022/05/04 11:09:10;;;;;;;;;13.25;13.25;;;;;23.50;38.00;101412.72;5059601;28;45411;-61
2022/05/04 11:11:37;;;;;;;;;13.75;12.00;;;;;23.83;37.98;101411.69;5059586;28;46330;-62
2022/05/04 11:14:04;;;;;;;;;13.50;11.75;;;;;24.21;37.79;101410.34;5059698;28;45292;-61
2022/05/04 11:16:30;;;;;;;;;8.00;7.00;;;;;24.62;37.36;101396.16;5059874;28;45404;-61
2022/05/04 11:18:58;;;;;;;;;10.25;8.75;;;;;24.95;37.03;101395.84;5059495;28;45409;-61
2022/05/04 11:21:26;;;;;;;;;13.00;12.00;;;;;25.30;36.58;101395.34;5059153;28;47066;-61
2022/05/04 11:23:53;;;;;;;;;12.75;12.00;;;;;25.51;36.40;101392.25;5059602;28;45347;-62
2022/05/04 11:26:22;;;;;;;;;12.25;12.25;;;;;25.64;35.71;101387.75;5041388;28;45449;-62
2022/05/04 11:28:48;;;;;;;;;13.00;10.00;;;;;25.64;35.97;101400.34;5059584;28;45483;-62
2022/05/04 11:31:14;;;;;;;;;16.00;14.25;;;;;25.56;35.61;101390.13;5059503;28;46359;-61
2022/05/04 11:33:41;;;;;;;;;10.25;10.25;;;;;25.41;35.40;101386.63;5059499;28;45242;-62
2022/05/04 11:36:07;;;;;;;;;13.75;13.25;;;;;25.27;34.50;101392.88;5059529;28;45244;-61
2022/05/04 11:38:32;;;;;;;;;14.00;12.75;;;;;25.08;34.97;101384.28;5041539;28;45265;-61
2022/05/04 11:40:57;;;;;;;;;14.00;11.25;;;;;24.92;34.80;101396.06;5059118;28;45515;-61
2022/05/04 11:43:34;;;;;;;;;11.75;10.50;;;;;24.73;34.38;101390.13;5041453;28;45253;-61